Terminal Aerodrome Forecast
Issued by NWS

Home | Current Version | Previous Version | Text Only | Print | Product List | Glossary Off
Versions: 1 2 3 4 5 6 7 8 9 10 11 12 13 14 15 16

553
FTUS43 KPAH 120520
TAFCGI
TAF
KCGI 120520Z 1206/1306 06005KT P6SM OVC100
      TEMPO 1206/1208 -SN FEW020 BKN035 OVC100
     FM120830 08004KT 6SM -SN BR BKN010 OVC035
     FM121000 08002KT P6SM FEW040 BKN080
     FM121315 34004KT P6SM FEW030 BKN045
     FM121730 34006KT P6SM BKN015 OVC025
     FM130030 34012KT P6SM SKC=

USA.gov is the U.S. government's official web portal to all federal, state and local government web resources and services.